Time;durP1;ratioP1;P1;durP2;ratioP2;P2;SDS_P1;SDS_P2;PMS_P1;PMS_P2;Temp;Humidity;BMP_temperature;BMP_pressure;BME280_temperature;BME280_humidity;BME280_pressure;Samples;Min_cycle;Max_cycle;Signal;HPM_P1;HPM_P2
2023/07/26 00:00:27;;;;;;;;;;;;;;;14.75;78.14;101100.06;5033026;28;19913;-53
2023/07/26 00:02:52;;;;;;;;;;;;;;;14.71;78.56;101102.63;5045557;28;20454;-52
2023/07/26 00:05:18;;;;;;;;;;;;;;;14.72;78.09;101093.91;5038329;28;19920;-52
2023/07/26 00:07:43;;;;;;;;;;;;;;;14.71;78.51;101100.00;5038004;28;20402;-53
2023/07/26 00:10:08;;;;;;;;;;;;;;;14.68;78.04;101100.84;5020013;28;19970;-52
2023/07/26 00:12:33;;;;;;;;;;;;;;;14.64;77.97;101099.06;5043337;28;19969;-53
2023/07/26 00:14:58;;;;;;;;;;;;;;;14.61;77.98;101099.00;5038456;28;20111;-53
2023/07/26 00:17:24;;;;;;;;;;;;;;;14.60;78.49;101099.88;5033145;28;19913;-53
2023/07/26 00:19:49;;;;;;;;;;;;;;;14.64;78.23;101090.31;5033273;28;20359;-53
2023/07/26 00:22:14;;;;;;;;;;;;;;;14.66;77.96;101099.09;5035012;28;20355;-53
2023/07/26 00:24:39;;;;;;;;;;;;;;;14.69;77.96;101101.75;5040959;28;20394;-53
2023/07/26 00:27:05;;;;;;;;;;;;;;;14.66;78.14;101097.34;5033183;28;20306;-53
2023/07/26 00:29:30;;;;;;;;;;;;;;;14.66;78.14;101089.47;5034970;28;19952;-52
2023/07/26 00:31:55;;;;;;;;;;;;;;;14.67;77.88;101096.50;5043049;28;19916;-52
2023/07/26 00:34:20;;;;;;;;;;;;;;;14.65;77.54;101092.09;5032472;28;19913;-52
2023/07/26 00:36:46;;;;;;;;;;;;;;;14.63;77.75;101089.44;5035392;28;19913;-53
2023/07/26 00:39:11;;;;;;;;;;;;;;;14.62;77.70;101095.53;5041331;28;19963;-53
2023/07/26 00:41:36;;;;;;;;;;;;;;;14.59;77.22;101091.09;5052421;28;19913;-52
2023/07/26 00:44:01;;;;;;;;;;;;;;;14.57;77.66;101087.59;5049409;28;20194;-52
2023/07/26 00:46:27;;;;;;;;;;;;;;;14.58;77.40;101092.00;5032410;28;19913;-52
2023/07/26 00:48:53;;;;;;;;;;;;;;;14.56;77.74;101090.22;5052137;28;19913;-53
2023/07/26 00:51:19;;;;;;;;;;;;;;;14.57;77.90;101094.56;5052456;28;20094;-52
2023/07/26 00:53:45;;;;;;;;;;;;;;;14.53;77.88;101087.56;5052615;28;20003;-52
2023/07/26 00:56:10;;;;;;;;;;;;;;;14.49;77.59;101091.88;5038985;28;20366;-53
2023/07/26 00:58:35;;;;;;;;;;;;;;;14.47;77.82;101092.72;5020840;28;19923;-52
2023/07/26 01:01:00;;;;;;;;;;;;;;;14.44;77.97;101085.72;5033630;28;20001;-51
2023/07/26 01:03:27;;;;;;;;;;;;;;;14.40;78.49;101087.41;5032437;28;19916;-53
2023/07/26 01:06:01;;;;;;;;;;;;;;;14.38;78.27;101090.84;5042113;28;19959;-53
2023/07/26 01:08:27;;;;;;;;;;;;;;;14.38;78.15;101080.38;5051204;28;20003;-53
2023/07/26 01:10:56;;;;;;;;;;;;;;;14.42;78.00;101085.69;5043367;28;19921;-53
2023/07/26 01:13:41;;;;;;;;;;;;;;;14.43;78.25;101091.81;5035077;28;19916;-53
2023/07/26 01:16:06;;;;;;;;;;;;;;;14.42;78.07;101093.56;5035307;28;19970;-52
2023/07/26 01:18:32;;;;;;;;;;;;;;;14.36;78.28;101090.84;5031933;28;19916;-53
2023/07/26 01:20:57;;;;;;;;;;;;;;;14.34;78.41;101097.81;5029275;28;20070;-53
2023/07/26 01:23:22;;;;;;;;;;;;;;;14.30;78.74;101093.41;5044100;28;19917;-53
2023/07/26 01:25:47;;;;;;;;;;;;;;;14.28;78.71;101095.13;5036518;28;19913;-53
2023/07/26 01:28:12;;;;;;;;;;;;;;;14.26;78.73;101091.59;5035507;28;20006;-53
2023/07/26 01:30:38;;;;;;;;;;;;;;;14.24;79.04;101088.09;5043320;28;20501;-52
2023/07/26 01:33:05;;;;;;;;;;;;;;;14.20;78.72;101088.91;5034893;28;19913;-52
2023/07/26 01:35:30;;;;;;;;;;;;;;;14.15;78.46;101088.84;5040341;28;19967;-53
2023/07/26 01:37:56;;;;;;;;;;;;;;;14.11;79.47;101091.38;5039605;28;19964;-53
2023/07/26 01:40:22;;;;;;;;;;;;;;;14.06;79.18;101088.72;5034859;28;19948;-52
2023/07/26 01:42:47;;;;;;;;;;;;;;;14.02;79.46;101090.44;5039452;28;19999;-51
2023/07/26 01:45:13;;;;;;;;;;;;;;;14.01;79.25;101086.03;5031421;28;20286;-53
2023/07/26 01:47:38;;;;;;;;;;;;;;;14.03;79.07;101091.31;5047973;28;19908;-52
2023/07/26 01:50:04;;;;;;;;;;;;;;;14.01;79.17;101086.03;5031563;28;20393;-53
2023/07/26 01:52:29;;;;;;;;;;;;;;;13.99;79.38;101084.25;5048024;28;19920;-53
2023/07/26 01:54:54;;;;;;;;;;;;;;;13.99;79.76;101082.53;5050517;28;19908;-52
2023/07/26 01:57:24;;;;;;;;;;;;;;;13.92;79.94;101078.06;5051621;28;19912;-53
2023/07/26 01:59:49;;;;;;;;;;;;;;;13.92;79.82;101088.56;5035140;28;19916;-52
2023/07/26 02:02:15;;;;;;;;;;;;;;;13.88;79.60;101082.38;5034093;28;19928;-53
2023/07/26 02:04:40;;;;;;;;;;;;;;;13.86;80.07;101077.97;5031163;28;19913;-53
2023/07/26 02:07:05;;;;;;;;;;;;;;;13.86;79.85;101085.81;5031095;28;19996;-52
2023/07/26 02:09:30;;;;;;;;;;;;;;;13.82;80.31;101087.53;5030839;28;19917;-53
2023/07/26 02:11:55;;;;;;;;;;;;;;;13.82;79.84;101091.91;5034735;28;19923;-52
2023/07/26 02:14:21;;;;;;;;;;;;;;;13.80;80.27;101093.59;5030728;28;19949;-53
2023/07/26 02:16:46;;;;;;;;;;;;;;;13.78;80.49;101083.09;5031018;28;20437;-53
2023/07/26 02:19:12;;;;;;;;;;;;;;;13.79;80.46;101083.97;5029610;28;19955;-53
2023/07/26 02:21:37;;;;;;;;;;;;;;;13.83;80.52;101088.41;5031204;28;20015;-52
2023/07/26 02:24:02;;;;;;;;;;;;;;;13.80;80.75;101084.03;5042013;28;19923;-53
2023/07/26 02:26:27;;;;;;;;;;;;;;;13.80;80.87;101076.16;5031048;28;20338;-53
2023/07/26 02:28:52;;;;;;;;;;;;;;;13.83;80.72;101080.53;5030625;28;19913;-53
2023/07/26 02:31:18;;;;;;;;;;;;;;;13.83;80.98;101081.44;5031984;28;19917;-53
2023/07/26 02:33:43;;;;;;;;;;;;;;;13.84;81.32;101079.69;5035512;28;19955;-52
2023/07/26 02:36:08;;;;;;;;;;;;;;;13.87;81.53;101079.72;5030822;28;19959;-52
2023/07/26 02:38:33;;;;;;;;;;;;;;;13.86;81.33;101076.25;5031078;28;19956;-53
2023/07/26 02:40:58;;;;;;;;;;;;;;;13.88;81.23;101071.91;5040046;28;19935;-52
2023/07/26 02:43:23;;;;;;;;;;;;;;;13.92;81.05;101078.06;5038141;28;19971;-53
2023/07/26 02:45:49;;;;;;;;;;;;;;;13.91;80.91;101071.06;5030120;28;19924;-53
2023/07/26 02:48:14;;;;;;;;;;;;;;;13.90;81.32;101075.44;5040830;28;19924;-53
2023/07/26 02:50:39;;;;;;;;;;;;;;;13.88;81.50;101077.13;5033787;28;19921;-53
2023/07/26 02:53:04;;;;;;;;;;;;;;;13.86;81.34;101073.63;5031250;28;19917;-52
2023/07/26 02:55:29;;;;;;;;;;;;;;;13.85;81.67;101071.00;5030564;28;20371;-53
2023/07/26 02:57:55;;;;;;;;;;;;;;;13.79;81.77;101069.16;5031122;28;19935;-52
2023/07/26 03:00:20;;;;;;;;;;;;;;;13.74;81.55;101090.06;5034864;28;19940;-53
2023/07/26 03:02:45;;;;;;;;;;;;;;;13.67;82.27;101093.44;5041582;28;19921;-53
2023/07/26 03:05:10;;;;;;;;;;;;;;;13.72;83.72;101094.38;5029785;28;19928;-53
2023/07/26 03:07:36;;;;;;;;;;;;;;;13.61;83.89;101100.31;5030367;28;20337;-53
2023/07/26 03:10:01;;;;;;;;;;;;;;;13.56;83.92;101102.88;5044259;28;19916;-52
2023/07/26 03:12:26;;;;;;;;;;;;;;;13.52;84.34;101098.44;5030323;28;19917;-53
2023/07/26 03:14:51;;;;;;;;;;;;;;;13.49;84.90;101106.25;5036217;28;20157;-52
2023/07/26 03:17:17;;;;;;;;;;;;;;;13.37;84.53;101110.41;5032652;28;20507;-52
2023/07/26 03:19:42;;;;;;;;;;;;;;;13.29;84.45;101109.38;5035045;28;19917;-53
2023/07/26 03:22:07;;;;;;;;;;;;;;;13.25;84.23;101110.16;5033222;28;19921;-52
2023/07/26 03:24:32;;;;;;;;;;;;;;;13.24;84.40;101097.97;5029731;28;20004;-53
2023/07/26 03:26:58;;;;;;;;;;;;;;;13.26;84.86;101095.38;5030247;28;19917;-54
2023/07/26 03:29:23;;;;;;;;;;;;;;;13.29;84.56;101096.28;5035529;28;20004;-53
2023/07/26 03:31:48;;;;;;;;;;;;;;;13.34;85.54;101097.28;5037590;28;19941;-52
2023/07/26 03:34:13;;;;;;;;;;;;;;;13.35;84.99;101096.44;5036436;28;19912;-53
2023/07/26 03:36:39;;;;;;;;;;;;;;;13.42;84.84;101107.00;5034615;28;19917;-54
2023/07/26 03:39:04;;;;;;;;;;;;;;;13.43;84.98;101098.31;5036917;28;19917;-53
2023/07/26 03:41:29;;;;;;;;;;;;;;;13.43;85.03;101103.53;5044050;28;19920;-53
2023/07/26 03:43:54;;;;;;;;;;;;;;;13.39;84.72;101103.47;5048106;28;19954;-53
2023/07/26 03:46:20;;;;;;;;;;;;;;;13.37;85.02;101109.56;5048912;28;19959;-53
2023/07/26 03:48:45;;;;;;;;;;;;;;;13.34;85.33;101101.63;5048901;28;19919;-53
2023/07/26 03:51:10;;;;;;;;;;;;;;;13.34;85.38;101112.09;5046951;28;19912;-53
2023/07/26 03:53:36;;;;;;;;;;;;;;;13.31;85.27;101106.78;5049308;28;19920;-53
2023/07/26 03:56:01;;;;;;;;;;;;;;;13.29;85.50;101101.50;5043454;28;19955;-53
2023/07/26 03:58:26;;;;;;;;;;;;;;;13.26;85.69;101104.09;5035481;28;20431;-53
2023/07/26 04:00:51;;;;;;;;;;;;;;;13.21;85.49;101097.91;5033475;28;20342;-53
2023/07/26 04:03:17;;;;;;;;;;;;;;;13.18;85.71;101103.09;5033350;28;19917;-53
2023/07/26 04:05:42;;;;;;;;;;;;;;;13.18;85.57;101097.88;5037371;28;19919;-54
2023/07/26 04:08:07;;;;;;;;;;;;;;;13.18;85.74;101095.25;5053425;28;20401;-53
2023/07/26 04:10:32;;;;;;;;;;;;;;;13.19;85.52;101104.84;5053134;28;19990;-53
2023/07/26 04:12:58;;;;;;;;;;;;;;;13.18;85.66;101098.75;5042260;28;20298;-53
2023/07/26 04:15:23;;;;;;;;;;;;;;;13.17;85.45;101098.72;5037110;28;19913;-53
2023/07/26 04:17:48;;;;;;;;;;;;;;;13.13;85.65;101097.75;5033244;28;19916;-53
2023/07/26 04:20:14;;;;;;;;;;;;;;;13.13;85.62;101095.16;5032941;28;19987;-53
2023/07/26 04:22:39;;;;;;;;;;;;;;;13.14;85.58;101096.06;5032325;28;19921;-53
2023/07/26 04:25:04;;;;;;;;;;;;;;;13.11;85.52;101088.16;5036929;28;19965;-53
2023/07/26 04:27:29;;;;;;;;;;;;;;;13.09;85.49;101098.56;5041311;28;20298;-53
2023/07/26 04:29:55;;;;;;;;;;;;;;;13.05;85.75;101092.41;5034911;28;19909;-53
2023/07/26 04:32:20;;;;;;;;;;;;;;;13.04;85.87;101100.22;5044936;28;19966;-53
2023/07/26 04:34:45;;;;;;;;;;;;;;;12.99;86.15;101092.31;5047539;28;19913;-53
2023/07/26 04:37:10;;;;;;;;;;;;;;;12.91;86.76;101101.75;5033000;28;19959;-53
2023/07/26 04:39:36;;;;;;;;;;;;;;;12.83;87.32;101096.38;5038331;28;20363;-53
2023/07/26 04:42:01;;;;;;;;;;;;;;;12.79;86.94;101098.88;5035853;28;19923;-53
2023/07/26 04:44:26;;;;;;;;;;;;;;;12.77;86.78;101098.00;5040278;28;19916;-53
2023/07/26 04:46:51;;;;;;;;;;;;;;;12.76;86.69;101104.06;5041546;28;19967;-53
2023/07/26 04:49:16;;;;;;;;;;;;;;;12.69;87.03;101101.34;5032612;28;19960;-53
2023/07/26 04:51:41;;;;;;;;;;;;;;;12.63;86.92;101105.56;5032423;28;20287;-53
2023/07/26 04:54:07;;;;;;;;;;;;;;;12.56;87.91;101099.34;5032347;28;19913;-53
2023/07/26 04:56:32;;;;;;;;;;;;;;;12.54;87.98;101103.66;5032370;28;20046;-53
2023/07/26 04:58:57;;;;;;;;;;;;;;;12.53;89.51;101101.91;5034342;28;19970;-53
2023/07/26 05:01:23;;;;;;;;;;;;;;;12.55;89.67;101100.19;5031975;28;19928;-53
2023/07/26 05:03:49;;;;;;;;;;;;;;;12.55;89.13;101100.19;5037827;28;19913;-53
2023/07/26 05:06:14;;;;;;;;;;;;;;;12.56;88.20;101103.69;5031983;28;19913;-53
2023/07/26 05:08:39;;;;;;;;;;;;;;;12.59;90.83;101098.53;5046530;28;20389;-53
2023/07/26 05:11:05;;;;;;;;;;;;;;;12.62;90.07;101098.59;5034427;28;19913;-53
2023/07/26 05:13:30;;;;;;;;;;;;;;;12.67;89.75;101091.69;5031515;28;19912;-53
2023/07/26 05:15:55;;;;;;;;;;;;;;;12.69;90.99;101096.13;5030945;28;20379;-53
2023/07/26 05:18:20;;;;;;;;;;;;;;;12.75;91.14;101094.47;5035477;28;19920;-53
2023/07/26 05:20:48;;;;;;;;;;;;;;;12.76;90.67;101093.59;5035217;28;19925;-53
2023/07/26 05:23:13;;;;;;;;;;;;;;;12.79;91.45;101102.41;5032017;28;20335;-53
2023/07/26 05:25:40;;;;;;;;;;;;;;;12.83;89.51;101099.00;5037480;28;19999;-53
2023/07/26 05:28:05;;;;;;;;;;;;;;;12.87;89.54;101103.44;5033862;28;19913;-53
2023/07/26 05:30:30;;;;;;;;;;;;;;;12.92;90.35;101102.63;5030264;28;20295;-53
2023/07/26 05:32:55;;;;;;;;;;;;;;;12.95;91.30;101100.09;5033254;28;19917;-53
2023/07/26 05:35:20;;;;;;;;;;;;;;;12.99;91.61;101102.78;5032024;28;20368;-53
2023/07/26 05:37:45;;;;;;;;;;;;;;;13.02;90.16;101100.22;5041628;28;19909;-53
2023/07/26 05:40:11;;;;;;;;;;;;;;;13.07;89.68;101095.06;5043619;28;20003;-53
2023/07/26 05:42:36;;;;;;;;;;;;;;;13.13;91.59;101099.50;5040475;28;20011;-53
2023/07/26 05:45:01;;;;;;;;;;;;;;;13.19;91.18;101099.59;5035518;28;19909;-53
2023/07/26 05:47:27;;;;;;;;;;;;;;;13.29;90.09;101111.13;5049794;28;19927;-53
2023/07/26 05:49:52;;;;;;;;;;;;;;;13.34;89.76;101105.13;5035196;28;20298;-53
2023/07/26 05:52:18;;;;;;;;;;;;;;;13.43;90.77;101095.69;5049182;28;19920;-53
2023/07/26 05:54:43;;;;;;;;;;;;;;;13.51;91.26;101112.38;5044276;28;19909;-52
2023/07/26 05:57:08;;;;;;;;;;;;;;;13.56;90.69;101105.47;5041343;28;19917;-53
2023/07/26 05:59:34;;;;;;;;;;;;;;;13.63;92.19;101104.72;5030905;28;20454;-53
2023/07/26 06:02:00;;;;;;;;;;;;;;;13.60;92.28;101111.63;5031447;28;19917;-53
2023/07/26 06:04:27;;;;;;;;;;;;;;;13.61;91.70;101109.03;5031423;28;19913;-53
2023/07/26 06:06:52;;;;;;;;;;;;;;;13.67;91.03;101106.53;5031330;28;19916;-53
2023/07/26 06:09:17;;;;;;;;;;;;;;;13.77;91.64;101117.13;5031717;28;20291;-54
2023/07/26 06:11:42;;;;;;;;;;;;;;;13.79;90.82;101118.94;5037912;28;19932;-53
2023/07/26 06:14:08;;;;;;;;;;;;;;;13.89;92.52;101133.91;5043306;28;19991;-53
2023/07/26 06:16:33;;;;;;;;;;;;;;;13.94;92.94;101131.34;5030843;28;19917;-53
2023/07/26 06:18:58;;;;;;;;;;;;;;;13.97;91.35;101128.78;5024888;28;20370;-53
2023/07/26 06:21:24;;;;;;;;;;;;;;;14.02;91.25;101131.44;5041164;28;19970;-53
2023/07/26 06:23:49;;;;;;;;;;;;;;;14.11;92.75;101135.94;5035735;28;20406;-53
2023/07/26 06:26:15;;;;;;;;;;;;;;;14.14;92.31;101146.50;5030455;28;19960;-53
2023/07/26 06:28:41;;;;;;;;;;;;;;;14.17;91.94;101136.91;5043776;28;20002;-53
2023/07/26 06:31:06;;;;;;;;;;;;;;;14.21;91.82;101143.09;5030373;28;20283;-54
2023/07/26 06:33:31;;;;;;;;;;;;;;;14.25;92.58;101147.50;5040396;28;19916;-53
2023/07/26 06:35:57;;;;;;;;;;;;;;;14.28;92.04;101152.81;5031826;28;20295;-52
2023/07/26 06:38:23;;;;;;;;;;;;;;;14.31;92.06;101155.47;5042109;28;20272;-53
2023/07/26 06:40:48;;;;;;;;;;;;;;;14.35;92.90;101162.50;5031830;28;19913;-54
2023/07/26 06:43:14;;;;;;;;;;;;;;;14.38;93.31;101156.41;5034138;28;20436;-54
2023/07/26 06:45:43;;;;;;;;;;;;;;;14.36;93.25;101163.38;5033469;28;19919;-54
2023/07/26 06:48:08;;;;;;;;;;;;;;;14.41;93.95;101162.56;5042965;28;19913;-54
2023/07/26 06:50:37;;;;;;;;;;;;;;;14.38;92.98;101164.25;5033470;28;19924;-54
2023/07/26 06:53:02;;;;;;;;;;;;;;;14.39;93.04;101166.03;5032435;28;19921;-54
2023/07/26 06:55:28;;;;;;;;;;;;;;;14.40;93.54;101171.28;5043282;28;19913;-55
2023/07/26 06:57:53;;;;;;;;;;;;;;;14.41;93.75;101172.16;5030614;28;19917;-55
2023/07/26 07:00:18;;;;;;;;;;;;;;;14.39;93.66;101169.53;5033711;28;20371;-55
2023/07/26 07:02:43;;;;;;;;;;;;;;;14.42;95.45;101171.31;5035115;28;19952;-55
2023/07/26 07:05:08;;;;;;;;;;;;;;;14.38;94.54;101172.13;5030932;28;20003;-55
2023/07/26 07:07:34;;;;;;;;;;;;;;;14.38;95.13;101170.41;5050184;28;19951;-55
2023/07/26 07:09:59;;;;;;;;;;;;;;;14.41;95.27;101167.81;5044928;28;19938;-55
2023/07/26 07:12:24;;;;;;;;;;;;;;;14.41;94.86;101173.06;5040796;28;19947;-55
2023/07/26 07:14:49;;;;;;;;;;;;;;;14.43;94.96;101175.69;5050303;28;19943;-55
2023/07/26 07:17:15;;;;;;;;;;;;;;;14.46;94.73;101187.97;5022221;28;19970;-55
2023/07/26 07:19:40;;;;;;;;;;;;;;;14.49;94.53;101207.25;5038375;28;20366;-55
2023/07/26 07:22:05;;;;;;;;;;;;;;;14.42;95.78;101206.31;5044558;28;20403;-55
2023/07/26 07:24:30;;;;;;;;;;;;;;;14.35;95.25;101208.78;5034542;28;19921;-55
2023/07/26 07:26:55;;;;;;;;;;;;;;;14.32;95.57;101225.34;5044792;28;19913;-55
2023/07/26 07:29:21;;;;;;;;;;;;;;;14.32;95.63;101216.63;5037456;28;19913;-55
2023/07/26 07:31:46;;;;;;;;;;;;;;;14.30;95.62;101221.84;5043850;28;19913;-54
2023/07/26 07:34:11;;;;;;;;;;;;;;;14.29;95.87;101221.81;5041881;28;19913;-55
2023/07/26 07:36:36;;;;;;;;;;;;;;;14.30;96.30;101213.09;5034897;28;19998;-55
2023/07/26 07:39:02;;;;;;;;;;;;;;;14.33;96.17;101221.00;5039256;28;19916;-55
2023/07/26 07:41:27;;;;;;;;;;;;;;;14.37;96.03;101221.06;5033777;28;19913;-55
2023/07/26 07:43:52;;;;;;;;;;;;;;;14.42;96.01;101216.78;5050727;28;20018;-55
2023/07/26 07:46:17;;;;;;;;;;;;;;;14.44;96.00;101214.19;5033320;28;19913;-54
2023/07/26 07:48:42;;;;;;;;;;;;;;;14.46;96.98;101212.44;5041411;28;19916;-54
2023/07/26 07:51:08;;;;;;;;;;;;;;;14.50;96.54;101219.50;5053632;28;19908;-54
2023/07/26 07:53:33;;;;;;;;;;;;;;;14.59;96.41;101218.75;5049085;28;19963;-54
2023/07/26 07:55:58;;;;;;;;;;;;;;;14.64;99.50;101208.34;5047052;28;19913;-55
2023/07/26 07:58:25;;;;;;;;;;;;;;;14.74;97.42;101208.50;5035573;28;20119;-55
2023/07/26 08:00:55;;;;;;;;;;;;;;;14.88;99.03;101213.00;5047705;28;20087;-55
2023/07/26 08:03:20;;;;;;;;;;;;;;;14.95;99.29;101206.97;5043115;28;20122;-55
2023/07/26 08:05:46;;;;;;;;;;;;;;;15.11;99.99;101203.63;5039422;28;20429;-55
2023/07/26 08:08:11;;;;;;;;;;;;;;;15.19;98.07;101206.34;5046648;28;19987;-54
2023/07/26 08:10:39;;;;;;;;;;;;;;;15.33;98.04;101211.75;5047011;28;19913;-55
2023/07/26 08:13:04;;;;;;;;;;;;;;;15.45;97.30;101206.63;5043335;28;19909;-55
2023/07/26 08:15:32;;;;;;;;;;;;;;;15.60;96.65;101207.63;5047907;28;20537;-55
2023/07/26 08:17:57;;;;;;;;;;;;;;;15.78;98.04;101206.88;5036778;28;19916;-55
2023/07/26 08:20:23;;;;;;;;;;;;;;;15.90;96.61;101212.28;5044381;28;19913;-55
2023/07/26 08:22:48;;;;;;;;;;;;;;;16.05;96.53;101205.34;5035743;28;19963;-55
2023/07/26 08:25:13;;;;;;;;;;;;;;;16.16;95.15;101207.19;5040235;28;19966;-54
2023/07/26 08:27:38;;;;;;;;;;;;;;;16.25;94.82;101202.84;5030237;28;19908;-54
2023/07/26 08:30:04;;;;;;;;;;;;;;;16.39;94.16;101205.56;5046225;28;20306;-55
2023/07/26 08:32:29;;;;;;;;;;;;;;;16.56;92.99;101203.03;5044386;28;19912;-55
2023/07/26 08:34:54;;;;;;;;;;;;;;;16.66;91.93;101203.06;5052141;28;19912;-55
2023/07/26 08:37:19;;;;;;;;;;;;;;;16.72;91.85;101207.47;5041456;28;19970;-55
2023/07/26 08:39:45;;;;;;;;;;;;;;;16.78;92.15;101201.34;5036242;28;19913;-55
2023/07/26 08:42:10;;;;;;;;;;;;;;;16.99;91.75;101197.97;5038934;28;19979;-55
2023/07/26 08:44:37;;;;;;;;;;;;;;;17.15;90.65;101194.47;5044477;28;19956;-54
2023/07/26 08:47:04;;;;;;;;;;;;;;;17.32;90.66;101206.78;5039713;28;19932;-54
2023/07/26 08:49:29;;;;;;;;;;;;;;;17.43;89.97;101206.81;5034777;28;19917;-54
2023/07/26 08:51:55;;;;;;;;;;;;;;;17.60;89.74;101205.06;5044121;28;20382;-54
2023/07/26 08:54:21;;;;;;;;;;;;;;;17.71;86.77;101200.69;5049759;28;19908;-54
2023/07/26 08:56:48;;;;;;;;;;;;;;;17.79;86.28;101203.31;5034070;28;19962;-54
2023/07/26 08:59:13;;;;;;;;;;;;;;;17.94;83.50;101196.31;5047248;28;19916;-54
2023/07/26 09:01:39;;;;;;;;;;;;;;;18.08;82.04;101189.25;5041265;28;19920;-54
2023/07/26 09:04:04;;;;;;;;;;;;;;;17.97;82.98;101191.88;5042104;28;19917;-54
2023/07/26 09:06:37;;;;;;;;;;;;;;;18.01;79.35;101187.50;5029112;28;19962;-54
2023/07/26 09:09:02;;;;;;;;;;;;;;;18.04;78.44;101184.84;5040121;28;19998;-53
2023/07/26 09:11:27;;;;;;;;;;;;;;;18.09;79.04;101175.19;5048566;28;20532;-55
2023/07/26 09:13:58;;;;;;;;;;;;;;;18.24;80.16;101180.41;5038903;28;19913;-54
2023/07/26 09:16:27;;;;;;;;;;;;;;;18.47;80.08;101178.59;5044180;28;19916;-53
2023/07/26 09:18:56;;;;;;;;;;;;;;;18.49;80.16;101175.03;5049872;28;20597;-57
2023/07/26 09:21:25;;;;;;;;;;;;;;;18.45;78.95;101177.72;5046945;28;19917;-54
2023/07/26 09:23:50;;;;;;;;;;;;;;;18.26;81.55;101177.75;5047135;28;19921;-54
2023/07/26 09:26:16;;;;;;;;;;;;;;;18.19;81.64;101184.84;5037925;28;19920;-55
2023/07/26 09:28:50;;;;;;;;;;;;;;;18.13;80.86;101176.91;5032311;28;20394;-54
2023/07/26 09:31:28;;;;;;;;;;;;;;;18.11;79.34;101183.97;5041542;28;19917;-54
2023/07/26 09:33:53;;;;;;;;;;;;;;;18.33;76.72;101194.47;5037872;28;19916;-54
2023/07/26 09:36:19;;;;;;;;;;;;;;;18.54;75.34;101182.97;5043515;28;20370;-54
2023/07/26 09:38:44;;;;;;;;;;;;;;;18.60;73.37;101180.31;5045690;28;19971;-55
2023/07/26 09:41:23;;;;;;;;;;;;;;;18.58;72.09;101182.03;5047903;28;20366;-55
2023/07/26 09:43:49;;;;;;;;;;;;;;;18.56;73.86;101181.19;5045180;28;19944;-55
2023/07/26 09:46:15;;;;;;;;;;;;;;;18.67;71.98;101178.50;5050202;28;19916;-55
2023/07/26 09:48:59;;;;;;;;;;;;;;;18.43;71.78;101180.34;5048675;28;20386;-55
2023/07/26 09:51:27;;;;;;;;;;;;;;;18.18;72.91;101195.38;5045217;28;19920;-54
2023/07/26 09:53:54;;;;;;;;;;;;;;;18.14;71.94;101191.88;5049908;28;19931;-54
2023/07/26 09:56:19;;;;;;;;;;;;;;;18.35;67.28;101192.69;5048722;28;19913;-54
2023/07/26 09:58:46;;;;;;;;;;;;;;;18.56;65.91;101183.81;5034804;28;19920;-53
2023/07/26 10:01:12;;;;;;;;;;;;;;;18.76;63.82;101189.03;5030988;28;20371;-54
2023/07/26 10:03:39;;;;;;;;;;;;;;;18.98;64.62;101188.94;5038985;28;19929;-54
2023/07/26 10:06:04;;;;;;;;;;;;;;;19.26;63.01;101187.00;5031585;28;19913;-54
2023/07/26 10:08:30;;;;;;;;;;;;;;;19.49;61.82;101185.97;5034184;28;19917;-54
2023/07/26 10:10:56;;;;;;;;;;;;;;;19.61;56.77;101185.84;5031274;28;20002;-54
2023/07/26 10:13:22;;;;;;;;;;;;;;;19.40;61.04;101187.78;5031407;28;19916;-54
2023/07/26 10:15:50;;;;;;;;;;;;;;;19.34;61.49;101193.09;5031107;28;20031;-55
2023/07/26 10:18:17;;;;;;;;;;;;;;;19.27;62.73;101196.69;5030855;28;19913;-55
2023/07/26 10:20:43;;;;;;;;;;;;;;;19.02;64.11;101188.91;5035314;28;19920;-55
2023/07/26 10:23:10;;;;;;;;;;;;;;;19.09;64.51;101181.84;5037550;28;19924;-55
2023/07/26 10:25:36;;;;;;;;;;;;;;;19.20;65.00;101182.63;5030430;28;20035;-55
2023/07/26 10:28:02;;;;;;;;;;;;;;;19.33;67.08;101183.41;5038720;28;19948;-55
2023/07/26 10:30:27;;;;;;;;;;;;;;;19.68;65.43;101181.38;5043801;28;19918;-55
2023/07/26 10:32:53;;;;;;;;;;;;;;;19.81;67.29;101177.78;5039200;28;19913;-55
2023/07/26 10:35:34;;;;;;;;;;;;;;;20.06;66.57;101181.06;5035560;28;19913;-54
2023/07/26 10:38:02;;;;;;;;;;;;;;;20.25;63.98;101163.22;5038486;28;19917;-55
2023/07/26 10:40:27;;;;;;;;;;;;;;;20.40;64.25;101167.44;5030786;28;19917;-55
2023/07/26 10:42:53;;;;;;;;;;;;;;;20.51;63.48;101177.91;5029984;28;19959;-55
2023/07/26 10:45:36;;;;;;;;;;;;;;;20.50;62.40;101170.84;5039629;28;20450;-54
2023/07/26 10:48:02;;;;;;;;;;;;;;;20.46;62.92;101161.19;5040690;28;20385;-55
2023/07/26 10:50:27;;;;;;;;;;;;;;;20.56;63.54;101162.84;5038517;28;19991;-55
2023/07/26 10:52:52;;;;;;;;;;;;;;;20.73;63.67;101172.38;5039559;28;19947;-55
2023/07/26 10:55:23;;;;;;;;;;;;;;;20.84;63.55;101173.09;5045756;28;20295;-54
2023/07/26 10:57:48;;;;;;;;;;;;;;;20.85;62.63;101172.19;5046030;28;19999;-55
2023/07/26 11:00:18;;;;;;;;;;;;;;;20.83;64.44;101176.66;5033298;28;20079;-55
2023/07/26 11:02:43;;;;;;;;;;;;;;;20.82;63.91;101173.09;5030663;28;19917;-55
2023/07/26 11:05:10;;;;;;;;;;;;;;;20.59;64.50;101164.56;5033929;28;19913;-54
2023/07/26 11:07:48;;;;;;;;;;;;;;;20.60;64.48;101164.53;5044877;28;19975;-53
2023/07/26 11:10:20;;;;;;;;;;;;;;;20.53;64.12;101159.38;5038753;28;19971;-54
2023/07/26 11:12:47;;;;;;;;;;;;;;;20.42;65.21;101156.84;5044473;28;19908;-54
2023/07/26 11:15:13;;;;;;;;;;;;;;;20.66;68.80;101155.66;5043653;28;20019;-54
2023/07/26 11:17:41;;;;;;;;;;;;;;;21.04;66.72;101158.69;5036891;28;20418;-56
2023/07/26 11:20:07;;;;;;;;;;;;;;;21.35;62.11;101154.66;5042078;28;19995;-54
2023/07/26 11:22:33;;;;;;;;;;;;;;;21.52;62.67;101164.13;5030417;28;20357;-54
2023/07/26 11:25:02;;;;;;;;;;;;;;;21.77;60.79;101161.94;5035125;28;19913;-55
2023/07/26 11:27:27;;;;;;;;;;;;;;;21.97;55.60;101166.91;5042440;28;19909;-54
2023/07/26 11:29:52;;;;;;;;;;;;;;;21.70;54.73;101170.91;5046726;28;19913;-54
2023/07/26 11:32:24;;;;;;;;;;;;;;;21.36;55.67;101172.34;5038761;28;19921;-55
2023/07/26 11:34:56;;;;;;;;;;;;;;;20.78;56.31;101170.53;5042526;28;19920;-56
2023/07/26 11:37:21;;;;;;;;;;;;;;;20.56;58.41;101181.38;5037826;28;20434;-55
2023/07/26 11:39:47;;;;;;;;;;;;;;;20.60;57.87;101180.44;5030897;28;20008;-54
2023/07/26 11:42:18;;;;;;;;;;;;;;;20.82;58.60;101173.09;5041964;28;19923;-56
2023/07/26 11:44:43;;;;;;;;;;;;;;;21.19;55.48;101171.72;5048210;28;20346;-54
2023/07/26 11:47:09;;;;;;;;;;;;;;;21.42;52.17;101181.97;5045662;28;20379;-55
2023/07/26 11:49:34;;;;;;;;;;;;;;;21.39;53.35;101179.34;5034540;28;19920;-55
2023/07/26 11:52:00;;;;;;;;;;;;;;;21.13;52.98;101180.63;5041426;28;20383;-54
2023/07/26 11:54:25;;;;;;;;;;;;;;;20.88;54.02;101182.75;5033595;28;19916;-55
2023/07/26 11:56:50;;;;;;;;;;;;;;;20.59;54.70;101181.31;5033709;28;19913;-54
2023/07/26 11:59:16;;;;;;;;;;;;;;;20.36;56.31;101189.53;5033320;28;19917;-55
2023/07/26 12:01:41;;;;;;;;;;;;;;;20.35;56.06;101186.91;5033591;28;20283;-54
2023/07/26 12:04:13;;;;;;;;;;;;;;;20.18;57.03;101182.69;5033331;28;19909;-54
2023/07/26 12:06:40;;;;;;;;;;;;;;;20.17;58.83;101186.22;5033753;28;19909;-54
2023/07/26 12:09:11;;;;;;;;;;;;;;;20.38;57.03;101193.06;5033641;28;19924;-55
2023/07/26 12:11:53;;;;;;;;;;;;;;;20.29;57.27;101191.41;5022842;28;19913;-54
2023/07/26 12:14:21;;;;;;;;;;;;;;;20.30;57.49;101194.91;5033373;28;19939;-54
2023/07/26 12:16:48;;;;;;;;;;;;;;;20.12;58.50;101194.22;5041997;28;19908;-54
2023/07/26 12:19:13;;;;;;;;;;;;;;;20.10;57.04;101195.13;5037763;28;19912;-55
2023/07/26 12:21:38;;;;;;;;;;;;;;;20.08;55.66;101199.56;5036962;28;19925;-54
2023/07/26 12:24:04;;;;;;;;;;;;;;;19.99;56.28;101205.81;5033253;28;20152;-54
2023/07/26 12:26:34;;;;;;;;;;;;;;;20.24;54.88;101198.50;5033278;28;19924;-53
2023/07/26 12:29:00;;;;;;;;;;;;;;;20.33;56.43;101200.16;5032989;28;19995;-54